ETEB 071256Z AUTO 27008KT 6000 -RA FEW019 BKN024 15/15 A3016 RMK AO2 DZB22E36RAB36 SLP223 P0000 T01500148 $ ETIK 071315Z AUTO 25010KT 9999 -DZ FEW011 SCT045 BKN060 BKN075 BKN090 17/17 A3017 RMK AO2 RAE1258DZB1258E05DZB15 SLP215 $ EDDE 071320Z AUTO 28012KT 9999 SHRA SCT014 BKN040 FEW///CB 16/14 Q1019 TEMPO 29015G25KT 4500 SHRA BKN013CB EDDF 071320Z 30015G30KT 230V340 9999 -SHRA FEW020 SCT032TCU 19/12 Q1022 NOSIG ETIC 071311Z AUTO 00000KT 3000 -RA SCT005 BKN013 OVC028 14/13 A3012 RMK AO2 VIS 3000V8000 RAE1258DZB1258E05RAB05 CIG 005V014 SLP202 $ EDQM 071320Z 24011KT 9000 SCT008 BKN010 14/12 Q1020 ETIH 071256Z AUTO 23004KT 9999 FEW014 SCT065 BKN080 16/14 A3015 RMK AO2 RAB14E15DZB15E19RAB19E33DZB33E36 SLP207 P0001 T01600135 ETSI 071320Z 26011KT 9999 VCSH SCT030 BKN042 BKN060 19/12 Q1021 BLU EDDP 071320Z 23011KT 190V280 9999 VCSH BKN022CB 19/15 Q1017 TEMPO 27015G25KT SHRA EDDM 071320Z AUTO 26007KT 220V300 9999 VCSH FEW030 FEW///CB 18/11 Q1022 RESHRA NOSIG ETSN 071320Z 23010KT 9999 VCSH SCT031 BKN080 19/12 Q1021 BLU BLU ETHN 071320Z 29011KT 9999 SCT013 BKN025 BKN080 17/13 Q1022 RERA BLU BLU TEMPO GRN EDDN 071320Z AUTO 26011KT 9999 SCT014 BKN030 17/14 Q1021 RERA NOSIG EDDS 071320Z AUTO 28015KT CAVOK 20/11 Q1022 NOSIG

METAR Messwerte

Klicken Sie auf einen Ort, um die 36h-Historie abzurufen

Ortsname
Ländercode / m ü. NN
Zeit Temperatur Taupunkt Rel.
Luftfeuchte
Luftdruck:
Altimeter
NN
Station
Wind in Beaufort
(Knoten)
Sichtweite
(Meter)
Wolken
(Meter über Grund)
Wettererscheinung
Ansbach-Katterbach
DE 466
Do 07.07. 14:561515100 %1021
1021
966
W 3 (8)6000Stark bewölkt (730)
Leicht bewölkt (580)
Regen (schwach)
Bad Windsheim - Illesheim
DE 326
Do 07.07. 15:151717100 %1022
1022
983
WSW 3 (10)>= 10000Stark bewölkt (2700)
Stark bewölkt (2300)
Stark bewölkt (1800)
Wolkig (1400)
Leicht bewölkt (340)
Nieselregen (schwach)
Erfurt-Bindersleben
DE 314
Do 07.07. 15:20161488 %1019
1019
982
W 4 (12)
Bald zeitweise:
WNW 4 (15) - 6 (25)
>= 10000
Bald zeitweise: 4500
Stark bewölkt (1200)
Wolkig (430)
Regen-Schauer
Frankfurt
DE 113
Do 07.07. 15:20191264 %1022
1022
1008
WNW 4 (15) - 7 (30)
SW - NNW
>= 10000Wolkig (980)
Leicht bewölkt (610)
Regen-Schauer (schwach)
Grafenwöhr
DE 414
Do 07.07. 15:11141394 %1020
1020
971
Windstill3000Bedeckt (850)
Stark bewölkt (400)
Wolkig (150)
Regen (schwach)
Hof
DE 578
Do 07.07. 15:20141288 %1020
1020
952
WSW 4 (11)9000Stark bewölkt (300)
Wolkig (240)
 
Hohenfels
DE 436
Do 07.07. 14:56161488 %1021
1021
969
SW 2 (4)>= 10000Stark bewölkt (2400)
Wolkig (2000)
Leicht bewölkt (430)
 
Ingolstadt
DE 366
Do 07.07. 15:20191264 %1021
1020
978
W 4 (11)>= 10000Stark bewölkt (1800)
Stark bewölkt (1300)
Wolkig (910)
 
Leipzig-Schkeuditz
DE 129
Do 07.07. 15:20191578 %1017
1017
1002
SW 4 (11)
S - W
Bald zeitweise:
W 4 (15) - 6 (25)
>= 10000Stark bewölkt Cb (670) Bald zeitweise: Regen-Schauer
München
DE 445
Do 07.07. 15:20181164 %1022
1022
969
W 3 (7)
SW - WNW
>= 10000Leicht bewölkt (910) 
Neuburg-Donau
DE 378
Do 07.07. 15:20191264 %1021
1020
976
SW 3 (10)>= 10000Stark bewölkt (2400)
Wolkig (940)
 
Niederstetten
DE 466
Do 07.07. 15:20171377 %1022
1022
967
WNW 4 (11)>= 10000Stark bewölkt (2400)
Stark bewölkt (760)
Wolkig (400)
 
Nürnberg
DE 312
Do 07.07. 15:20171482 %1021
1021
984
W 4 (11)>= 10000Stark bewölkt (910)
Wolkig (430)
 
Stuttgart
DE 374
Do 07.07. 15:20201156 %1022
1021
978
W 4 (15)>= 10000Nicht signifikant 

Altimeter: Einstellung am Altimeter (Höhenmesser), die Höhe 0 muss auf diesen Luftdruckwert zeigen, damit das Gerät die Stationshöhe richtig anzeigt.

NN: Luftdruck reduziert auf "Normal Null", auf Meereshöhe, dieser von der Temperatur abhängige Wert wird bisweilen unkorrekt einfach als "Luftdruck" bezeichnet. Eigentlich nur eine fiktive Größe, die es erlaubt, Stationen auf unterschiedlichen Höhen miteinander zu vergleichen.

Station: Realer Luftdruck an der Station.